Time;durP1;ratioP1;P1;durP2;ratioP2;P2;SDS_P1;SDS_P2;PMS_P1;PMS_P2;Temp;Humidity;BMP_temperature;BMP_pressure;BME280_temperature;BME280_humidity;BME280_pressure;Samples;Min_cycle;Max_cycle;Signal;HPM_P1;HPM_P2
2022/06/24 03:19:47;;;;;;;30.38;21.90;;;20.50;99.90;;;;;;6309197;22;20027;-82
2022/06/24 03:22:16;;;;;;;26.13;20.00;;;20.50;99.90;;;;;;6256571;22;20046;-83
2022/06/24 03:24:42;;;;;;;26.98;20.38;;;20.40;99.90;;;;;;6310335;22;20337;-85
2022/06/24 03:28:00;;;;;;;28.40;20.55;;;20.40;99.90;;;;;;6283321;22;20011;-82
2022/06/24 03:38:41;;;;;;;29.52;21.33;;;20.40;99.90;;;;;;6294171;22;20357;-82
2022/06/24 03:41:29;;;;;;;31.77;20.67;;;20.40;99.90;;;;;;6229918;22;20031;-82
2022/06/24 03:44:05;;;;;;;29.95;21.40;;;20.40;99.90;;;;;;6246524;23;20091;-82
2022/06/24 03:46:33;;;;;;;27.52;18.25;;;20.40;99.90;;;;;;6245898;23;20024;-81
2022/06/24 03:49:21;;;;;;;25.77;16.90;;;20.30;99.90;;;;;;6246318;23;20016;-82
2022/06/24 03:51:53;;;;;;;20.90;12.88;;;20.30;99.90;;;;;;6265950;22;20015;-81
2022/06/24 03:54:19;;;;;;;17.08;11.20;;;20.20;99.90;;;;;;6251453;22;20022;-82
2022/06/24 03:56:44;;;;;;;11.95;7.00;;;20.20;99.90;;;;;;6277459;22;20091;-84
2022/06/24 03:59:10;;;;;;;11.52;6.57;;;20.10;99.90;;;;;;6278727;22;20015;-81
2022/06/24 04:05:01;;;;;;;15.90;6.70;;;20.00;99.90;;;;;;6309523;22;20441;-83
2022/06/24 04:08:31;;;;;;;9.05;6.18;;;19.90;99.90;;;;;;6256619;22;20011;-80
2022/06/24 04:11:12;;;;;;;10.75;6.20;;;19.70;99.90;;;;;;6307300;22;20037;-83
2022/06/24 04:13:54;;;;;;;9.98;5.97;;;19.60;99.90;;;;;;6281960;22;20069;-82
2022/06/24 04:17:07;;;;;;;10.63;5.97;;;19.50;99.90;;;;;;6255704;22;20037;-82
2022/06/24 04:19:44;;;;;;;11.10;6.18;;;19.60;99.90;;;;;;6281559;22;20046;-81
2022/06/24 04:22:33;;;;;;;10.73;6.18;;;19.50;99.90;;;;;;6249143;22;20020;-79
2022/06/24 04:25:17;;;;;;;9.18;5.97;;;19.50;99.90;;;;;;6246347;23;20381;-81
2022/06/24 04:28:30;;;;;;;8.35;5.63;;;19.60;99.90;;;;;;6245795;23;20066;-82
2022/06/24 04:30:56;;;;;;;9.30;5.68;;;19.60;99.90;;;;;;6245873;22;20027;-82
2022/06/24 04:34:03;;;;;;;7.97;5.40;;;19.60;99.90;;;;;;6245792;23;20020;-80
2022/06/24 04:36:41;;;;;;;6.85;5.70;;;19.60;99.90;;;;;;6245626;23;20485;-82
2022/06/24 04:43:33;;;;;;;8.75;5.63;;;19.60;99.90;;;;;;6333189;22;20506;-82
2022/06/24 04:46:30;;;;;;;9.18;5.28;;;19.60;99.90;;;;;;6337982;22;20014;-81
2022/06/24 04:48:55;;;;;;;7.63;5.03;;;19.60;99.90;;;;;;6203709;22;20370;-82
2022/06/24 04:51:21;;;;;;;6.47;5.03;;;19.50;99.90;;;;;;6341032;22;20003;-81
2022/06/24 04:54:32;;;;;;;6.25;4.88;;;19.50;99.90;;;;;;6286605;22;20015;-80
2022/06/24 04:57:12;;;;;;;8.00;4.40;;;19.60;99.90;;;;;;6289402;22;20390;-82
2022/06/24 04:59:44;;;;;;;6.90;4.35;;;19.60;99.90;;;;;;6288573;22;20312;-82
2022/06/24 05:02:13;;;;;;;6.10;4.82;;;19.60;99.90;;;;;;6312411;22;20037;-82
2022/06/24 05:04:45;;;;;;;5.05;3.80;;;19.60;99.90;;;;;;6312501;22;20493;-81
2022/06/24 05:07:11;;;;;;;6.72;4.55;;;19.60;99.90;;;;;;6312418;22;20082;-82
2022/06/24 05:09:37;;;;;;;8.85;4.55;;;19.60;99.90;;;;;;6288207;22;20011;-82
2022/06/24 05:12:03;;;;;;;6.05;3.63;;;19.60;99.90;;;;;;6313502;22;20015;-81
2022/06/24 05:14:30;;;;;;;4.22;3.38;;;19.60;99.90;;;;;;6287183;22;20085;-81
2022/06/24 05:16:59;;;;;;;6.72;4.05;;;19.60;99.90;;;;;;6286729;22;20465;-82
2022/06/24 05:19:25;;;;;;;5.75;3.70;;;19.60;99.90;;;;;;6286260;22;20068;-81
2022/06/24 05:21:51;;;;;;;7.03;3.85;;;19.70;99.90;;;;;;6312360;22;20367;-80
2022/06/24 05:24:17;;;;;;;5.22;3.67;;;19.70;99.90;;;;;;6312805;22;20305;-82
2022/06/24 05:26:44;;;;;;;5.53;3.88;;;19.70;99.90;;;;;;6286425;22;20015;-81
2022/06/24 05:29:10;;;;;;;5.65;3.65;;;19.70;99.90;;;;;;6286716;22;20010;-82
2022/06/24 05:31:37;;;;;;;8.65;3.80;;;19.70;99.90;;;;;;6312997;22;20019;-82
2022/06/24 05:34:03;;;;;;;6.45;3.80;;;19.50;99.90;;;;;;6290234;22;20010;-82
2022/06/24 05:36:29;;;;;;;6.57;4.05;;;19.50;99.90;;;;;;6343023;22;20011;-83
2022/06/24 05:38:55;;;;;;;5.80;4.15;;;19.50;99.90;;;;;;6288178;22;20022;-82
2022/06/24 05:41:21;;;;;;;7.03;4.57;;;19.50;99.90;;;;;;6315631;22;20007;-84
2022/06/24 05:43:47;;;;;;;7.88;4.93;;;19.50;99.90;;;;;;6342557;22;20011;-84
2022/06/24 05:46:16;;;;;;;8.73;5.47;;;19.60;99.90;;;;;;6288353;22;20064;-82
2022/06/24 05:48:41;;;;;;;9.20;5.00;;;19.50;99.90;;;;;;6316310;22;20011;-83
2022/06/24 05:51:12;;;;;;;7.68;4.88;;;19.50;99.90;;;;;;6342041;22;20115;-81
2022/06/24 05:56:23;;;;;;;7.45;5.53;;;19.60;99.90;;;;;;6323013;22;20018;-81
2022/06/24 05:58:49;;;;;;;8.02;5.20;;;19.60;99.90;;;;;;6350554;22;20086;-80
2022/06/24 06:01:15;;;;;;;9.57;5.90;;;19.60;99.90;;;;;;6325398;22;20023;-77
2022/06/24 06:03:41;;;;;;;7.85;5.32;;;19.70;99.90;;;;;;6328095;22;20317;-78
2022/06/24 06:06:07;;;;;;;10.98;6.45;;;19.60;99.90;;;;;;6357472;22;19991;-79
2022/06/24 06:08:37;;;;;;;7.68;6.28;;;19.60;99.90;;;;;;6327849;22;20485;-80
2022/06/24 06:11:19;;;;;;;8.52;6.22;;;19.60;99.90;;;;;;6300078;22;20501;-79
2022/06/24 06:13:46;;;;;;;10.00;6.72;;;19.60;99.90;;;;;;6329605;22;20013;-82
2022/06/24 06:16:11;;;;;;;10.13;6.90;;;19.60;99.90;;;;;;6355889;22;20011;-81
2022/06/24 06:18:38;;;;;;;10.00;7.05;;;19.60;99.90;;;;;;6350819;22;20035;-80
2022/06/24 06:21:08;;;;;;;10.32;6.63;;;19.60;99.90;;;;;;6346250;22;20032;-84
2022/06/24 06:23:35;;;;;;;10.02;7.57;;;19.60;99.90;;;;;;6318666;22;20007;-85
2022/06/24 06:26:02;;;;;;;11.73;6.72;;;19.60;99.90;;;;;;6293997;22;20011;-85
2022/06/24 06:28:28;;;;;;;8.90;6.75;;;19.70;99.90;;;;;;6347465;22;20377;-84
2022/06/24 06:30:54;;;;;;;12.13;6.72;;;19.60;99.90;;;;;;6317533;22;20022;-82
2022/06/24 06:33:20;;;;;;;13.70;6.88;;;19.60;99.90;;;;;;6347182;22;20030;-83
2022/06/24 06:35:46;;;;;;;12.55;7.00;;;19.60;99.90;;;;;;6345833;22;20060;-82
2022/06/24 06:38:11;;;;;;;9.20;6.75;;;19.50;99.90;;;;;;6345998;22;20034;-85
2022/06/24 06:40:38;;;;;;;8.60;7.30;;;19.50;99.90;;;;;;6345496;22;20024;-82
2022/06/24 06:43:07;;;;;;;10.23;8.02;;;19.50;99.90;;;;;;6316911;22;20032;-83
2022/06/24 06:45:37;;;;;;;10.80;7.68;;;19.60;99.90;;;;;;6317174;22;20042;-83
2022/06/24 06:48:04;;;;;;;9.10;7.00;;;19.50;99.90;;;;;;6317097;22;20011;-82
2022/06/24 06:50:31;;;;;;;11.95;7.72;;;19.50;99.90;;;;;;6344502;22;20017;-82
2022/06/24 06:52:56;;;;;;;12.43;8.32;;;19.50;99.90;;;;;;6345832;22;20007;-82
2022/06/24 06:55:23;;;;;;;12.35;8.45;;;19.60;99.90;;;;;;6317134;22;20026;-82
2022/06/24 06:57:50;;;;;;;10.10;7.65;;;19.70;99.90;;;;;;6317240;22;20014;-84
2022/06/24 07:00:17;;;;;;;10.60;7.65;;;19.70;99.90;;;;;;6342582;22;20331;-84
2022/06/24 07:02:42;;;;;;;12.50;7.88;;;19.80;99.90;;;;;;6342231;22;20015;-83
2022/06/24 07:05:08;;;;;;;11.55;7.18;;;19.70;99.90;;;;;;6342105;22;20007;-83
2022/06/24 07:07:34;;;;;;;12.13;7.50;;;19.70;99.90;;;;;;6289599;22;20049;-84
2022/06/24 07:10:00;;;;;;;14.18;8.68;;;19.70;99.90;;;;;;6314406;22;20086;-85
2022/06/24 07:12:26;;;;;;;11.82;7.95;;;19.80;99.90;;;;;;6314889;22;20045;-83
2022/06/24 07:14:52;;;;;;;12.45;6.95;;;19.80;99.90;;;;;;6341878;22;20017;-83
2022/06/24 07:17:18;;;;;;;12.38;7.07;;;19.80;99.90;;;;;;6342115;22;20011;-82
2022/06/24 07:19:44;;;;;;;10.68;7.00;;;19.80;99.90;;;;;;6314530;22;20039;-83
2022/06/24 07:22:10;;;;;;;10.60;7.10;;;19.80;99.90;;;;;;6288394;22;20019;-83
2022/06/24 07:24:36;;;;;;;8.10;7.05;;;19.80;99.90;;;;;;6342440;22;20493;-83
2022/06/24 07:27:04;;;;;;;13.60;8.35;;;19.80;99.90;;;;;;6341819;22;20378;-81
2022/06/24 07:29:33;;;;;;;13.05;8.65;;;19.90;99.90;;;;;;6316297;22;20377;-82
2022/06/24 07:32:00;;;;;;;10.60;7.28;;;19.90;99.90;;;;;;6343838;22;20014;-86
2022/06/24 07:34:30;;;;;;;12.35;8.80;;;19.90;99.90;;;;;;6315849;22;20011;-85
2022/06/24 07:36:59;;;;;;;11.35;8.07;;;19.90;99.90;;;;;;6344749;22;20011;-86
2022/06/24 07:39:25;;;;;;;11.18;7.85;;;20.00;99.90;;;;;;6317468;22;20006;-85
2022/06/24 07:41:52;;;;;;;12.45;7.35;;;20.00;99.90;;;;;;6292997;22;20054;-86
2022/06/24 07:44:18;;;;;;;14.95;8.75;;;20.00;99.90;;;;;;6346712;22;20009;-84
2022/06/24 07:46:43;;;;;;;10.27;7.97;;;20.00;99.90;;;;;;6319443;22;20042;-84
2022/06/24 07:49:09;;;;;;;11.90;8.50;;;20.00;99.90;;;;;;6293609;22;20009;-83
2022/06/24 07:51:34;;;;;;;10.65;8.27;;;20.10;99.90;;;;;;6293976;22;20026;-85
2022/06/24 07:54:00;;;;;;;12.68;8.07;;;20.10;99.90;;;;;;6345908;22;20013;-84
2022/06/24 07:57:11;;;;;;;10.82;8.35;;;20.10;99.90;;;;;;6319588;22;20310;-87
2022/06/24 07:59:12;;;;;;;15.95;9.05;;;20.10;99.90;;;;;;6292635;22;20010;-83
2022/06/24 08:01:37;;;;;;;12.80;8.77;;;20.10;99.90;;;;;;6319319;22;20054;-83
2022/06/24 08:04:09;;;;;;;10.35;7.93;;;20.10;99.90;;;;;;6294713;22;20010;-86
2022/06/24 08:06:40;;;;;;;14.00;8.70;;;20.10;99.90;;;;;;6292785;22;20454;-87
2022/06/24 08:09:07;;;;;;;10.88;7.35;;;20.10;99.90;;;;;;6347358;22;20013;-84
2022/06/24 08:11:32;;;;;;;10.00;7.60;;;20.10;99.90;;;;;;6318210;22;20333;-83
2022/06/24 08:13:58;;;;;;;11.70;8.25;;;20.10;99.90;;;;;;6345873;22;20015;-82
2022/06/24 08:16:24;;;;;;;12.13;7.43;;;20.10;99.90;;;;;;6344528;22;20014;-84
2022/06/24 08:18:51;;;;;;;10.80;7.35;;;20.00;99.90;;;;;;6346623;22;20013;-84
2022/06/24 08:21:16;;;;;;;12.30;8.35;;;20.00;99.90;;;;;;6344090;22;20014;-84
2022/06/24 08:23:42;;;;;;;10.82;7.50;;;19.90;99.90;;;;;;6290755;22;20086;-84
2022/06/24 08:26:08;;;;;;;11.82;8.75;;;19.90;99.90;;;;;;6318876;22;20011;-88
2022/06/24 08:28:33;;;;;;;14.05;8.88;;;19.70;99.90;;;;;;6320968;22;20007;-85
2022/06/24 08:30:59;;;;;;;16.17;8.75;;;19.70;99.90;;;;;;6293878;22;20068;-83
2022/06/24 08:33:25;;;;;;;14.52;8.43;;;19.50;99.90;;;;;;6295021;22;20030;-88
2022/06/24 08:35:51;;;;;;;13.18;8.52;;;19.50;99.90;;;;;;6321296;22;20078;-85
2022/06/24 08:38:19;;;;;;;10.70;8.10;;;19.40;99.90;;;;;;6321570;22;20020;-85
2022/06/24 08:40:48;;;;;;;13.25;9.55;;;19.30;99.90;;;;;;6346309;22;20025;-86
2022/06/24 08:43:14;;;;;;;13.25;7.93;;;19.30;99.90;;;;;;6320330;22;20006;-87
2022/06/24 08:45:40;;;;;;;11.18;7.03;;;19.20;99.90;;;;;;6346736;22;20031;-88
2022/06/24 08:48:10;;;;;;;14.20;7.25;;;19.20;99.90;;;;;;6318633;22;20045;-88
2022/06/24 08:50:39;;;;;;;13.95;7.40;;;19.00;99.90;;;;;;6346825;22;20013;-85
2022/06/24 08:53:24;;;;;;;9.88;5.68;;;19.00;99.90;;;;;;6291929;22;20018;-87
2022/06/24 08:59:24;;;;;;;9.85;4.30;;;18.40;99.90;;;;;;6316928;22;20464;-86
2022/06/24 09:01:50;;;;;;;8.65;4.15;;;18.20;99.90;;;;;;6321567;22;20062;-85
2022/06/24 09:04:32;;;;;;;6.05;3.80;;;18.10;99.90;;;;;;6297923;22;20041;-87
2022/06/24 09:07:00;;;;;;;7.72;4.25;;;18.10;99.90;;;;;;6296620;22;20011;-88
2022/06/24 09:10:03;;;;;;;;;;;;;;;;;;;;;
2022/06/24 09:12:48;;;;;;;11.95;5.00;;;18.00;99.90;;;;;;6319558;22;20015;-83
2022/06/24 09:15:14;;;;;;;15.55;5.97;;;17.90;99.90;;;;;;6321601;22;20049;-82
2022/06/24 09:17:41;;;;;;;14.32;7.65;;;17.80;99.90;;;;;;6321687;22;20032;-85
2022/06/24 09:20:14;;;;;;;17.45;8.55;;;17.80;99.90;;;;;;6293829;22;20077;-83
2022/06/24 09:22:39;;;;;;;13.45;8.07;;;17.70;99.90;;;;;;6348309;22;20011;-85
2022/06/24 09:25:06;;;;;;;15.82;9.43;;;17.70;99.90;;;;;;6348542;22;20014;-85
2022/06/24 09:27:33;;;;;;;26.98;11.98;;;17.80;99.90;;;;;;6320792;22;20085;-86
2022/06/24 09:29:59;;;;;;;21.63;11.80;;;17.80;99.90;;;;;;6347032;22;20010;-81
2022/06/24 09:32:25;;;;;;;18.98;12.32;;;17.90;99.90;;;;;;6345841;22;20144;-81
2022/06/24 09:35:07;;;;;;;16.33;10.90;;;17.90;99.90;;;;;;6317181;22;20007;-84
2022/06/24 09:37:35;;;;;;;19.08;11.48;;;17.90;99.90;;;;;;6344297;22;20436;-81
2022/06/24 09:40:25;;;;;;;17.23;10.77;;;17.90;99.90;;;;;;6344692;22;20034;-83
2022/06/24 09:43:01;;;;;;;17.05;10.30;;;17.80;99.90;;;;;;6333035;22;20010;-83
2022/06/24 09:45:48;;;;;;;16.02;10.75;;;17.80;99.90;;;;;;6343296;22;20432;-82
2022/06/24 09:48:35;;;;;;;18.83;11.57;;;17.80;99.90;;;;;;6317999;22;20011;-83
2022/06/24 09:51:02;;;;;;;22.98;13.88;;;17.90;99.90;;;;;;6322106;22;20018;-85
2022/06/24 09:53:35;;;;;;;16.42;10.45;;;17.90;99.90;;;;;;6322342;22;20018;-81
2022/06/24 09:56:01;;;;;;;16.48;10.90;;;18.00;99.90;;;;;;6318571;22;20003;-82
2022/06/24 09:58:27;;;;;;;11.80;7.75;;;18.00;99.90;;;;;;6318910;22;20011;-84
2022/06/24 10:00:53;;;;;;;14.65;9.35;;;18.00;99.90;;;;;;6345767;22;20052;-83
2022/06/24 10:03:18;;;;;;;16.38;10.07;;;18.00;99.90;;;;;;6317734;22;20045;-80
2022/06/24 10:05:46;;;;;;;19.20;11.48;;;18.00;99.90;;;;;;6315727;22;20007;-83
2022/06/24 10:08:18;;;;;;;18.35;11.77;;;18.00;99.90;;;;;;6318765;22;20041;-83
2022/06/24 10:10:52;;;;;;;14.23;10.25;;;18.10;99.90;;;;;;6320172;22;20015;-83
2022/06/24 10:13:29;;;;;;;18.50;11.57;;;18.10;99.90;;;;;;6293844;22;20015;-83
2022/06/24 10:15:57;;;;;;;14.15;9.30;;;18.20;99.90;;;;;;6318823;22;20060;-84
2022/06/24 10:18:28;;;;;;;13.50;8.65;;;18.20;99.90;;;;;;6319033;22;20455;-82
2022/06/24 10:21:00;;;;;;;11.88;7.95;;;18.20;99.90;;;;;;6316349;22;20445;-83
2022/06/24 10:23:40;;;;;;;12.75;8.50;;;18.20;99.90;;;;;;6316128;22;20064;-84
2022/06/24 10:26:30;;;;;;;10.13;7.43;;;18.20;99.90;;;;;;6289029;22;20501;-85
2022/06/24 10:28:59;;;;;;;12.02;7.63;;;18.20;99.90;;;;;;6315600;22;20011;-84
2022/06/24 10:31:48;;;;;;;10.60;7.00;;;18.20;99.90;;;;;;6314660;22;20026;-81
2022/06/24 10:34:22;;;;;;;12.82;8.70;;;18.20;99.90;;;;;;6315108;22;20063;-82
2022/06/24 10:37:03;;;;;;;10.50;8.30;;;18.20;99.90;;;;;;6342990;22;20018;-81
2022/06/24 10:39:31;;;;;;;11.07;9.02;;;18.20;99.90;;;;;;6341730;22;20470;-82
2022/06/24 10:42:08;;;;;;;12.13;8.07;;;18.20;99.90;;;;;;6313556;22;20062;-84
2022/06/24 10:44:36;;;;;;;12.80;8.75;;;18.30;99.90;;;;;;6313249;22;20051;-82
2022/06/24 10:47:05;;;;;;;11.85;8.35;;;18.40;99.90;;;;;;6313885;22;20007;-81
2022/06/24 10:49:52;;;;;;;8.77;7.05;;;18.40;99.90;;;;;;6341609;22;20439;-83
2022/06/24 10:52:36;;;;;;;11.52;8.57;;;18.50;99.90;;;;;;6341135;22;20015;-82
2022/06/24 10:55:29;;;;;;;10.80;7.30;;;18.60;99.90;;;;;;6314029;22;20018;-81
2022/06/24 10:58:01;;;;;;;9.98;6.40;;;18.70;99.90;;;;;;6314143;22;20029;-81
2022/06/24 11:00:51;;;;;;;13.70;8.65;;;18.70;99.90;;;;;;6340739;22;20011;-82
2022/06/24 11:03:37;;;;;;;12.88;8.27;;;18.80;99.90;;;;;;6341789;22;20010;-84
2022/06/24 11:06:03;;;;;;;14.50;10.57;;;18.90;99.90;;;;;;6341693;22;20024;-82
2022/06/24 11:08:29;;;;;;;15.52;11.63;;;19.00;99.90;;;;;;6289747;22;20035;-82
2022/06/24 11:10:55;;;;;;;21.77;14.57;;;19.10;99.90;;;;;;6288247;22;20026;-84
2022/06/24 11:13:23;;;;;;;22.38;15.75;;;19.20;99.90;;;;;;6290278;22;20462;-82
2022/06/24 11:15:58;;;;;;;21.05;16.45;;;19.30;99.90;;;;;;6290818;22;20015;-83
2022/06/24 11:18:30;;;;;;;22.92;16.35;;;19.30;99.90;;;;;;6290272;22;20408;-83
2022/06/24 11:43:57;;;;;;;23.33;18.15;;;20.00;99.90;;;;;;6339225;22;20078;-83
2022/06/24 11:50:13;;;;;;;27.95;20.02;;;20.10;99.90;;;;;;6342522;22;20018;-82
2022/06/24 12:21:25;;;;;;;20.58;15.65;;;20.50;99.90;;;;;;6329059;22;20022;-82
2022/06/24 12:23:52;;;;;;;19.05;14.50;;;20.60;99.90;;;;;;6221257;23;20015;-84
2022/06/24 12:26:42;;;;;;;;;;;;;;;;;;;;;
2022/06/24 12:29:08;;;;;;;19.40;13.70;;;20.50;99.90;;;;;;6313161;22;20007;-82
2022/06/24 12:31:54;;;;;;;18.45;13.25;;;20.50;99.90;;;;;;6289289;22;20077;-84
2022/06/24 12:34:40;;;;;;;19.55;13.77;;;20.60;99.90;;;;;;6314151;22;20090;-85
2022/06/24 12:38:04;;;;;;;17.20;13.95;;;20.60;99.90;;;;;;6289063;22;20010;-84
2022/06/24 12:40:23;;;;;;;17.63;13.35;;;20.70;99.90;;;;;;6305161;22;20019;-83
2022/06/24 12:43:17;;;;;;;18.63;13.80;;;20.80;99.90;;;;;;6342155;22;20061;-83
2022/06/24 12:45:43;;;;;;;17.15;13.95;;;20.90;99.90;;;;;;6341162;22;20014;-84
2022/06/24 12:51:01;;;;;;;16.40;13.30;;;21.00;99.90;;;;;;6315606;22;20065;-84
2022/06/24 12:53:29;;;;;;;14.55;12.13;;;21.00;99.90;;;;;;6313193;22;20052;-83
2022/06/24 12:55:58;;;;;;;17.70;13.27;;;21.00;99.90;;;;;;6289459;22;20479;-84
2022/06/24 12:58:23;;;;;;;17.45;14.18;;;21.00;99.90;;;;;;6289523;22;20015;-83
2022/06/24 13:00:50;;;;;;;17.42;13.43;;;21.00;99.90;;;;;;6289540;22;20011;-82
2022/06/24 13:03:17;;;;;;;17.02;13.80;;;21.10;99.90;;;;;;6290069;22;20477;-82
2022/06/24 13:05:43;;;;;;;18.67;14.45;;;21.20;99.90;;;;;;6291426;22;20097;-81
2022/06/24 13:08:09;;;;;;;16.27;12.80;;;21.20;99.90;;;;;;6318568;22;20010;-83
2022/06/24 13:10:37;;;;;;;14.82;11.60;;;21.30;99.90;;;;;;6291618;22;20076;-83
2022/06/24 13:13:04;;;;;;;13.30;10.73;;;21.40;99.90;;;;;;6313568;22;20018;-86
2022/06/24 13:15:30;;;;;;;14.00;10.57;;;21.60;99.90;;;;;;6288313;22;20081;-84
2022/06/24 13:17:56;;;;;;;13.50;10.00;;;21.70;99.90;;;;;;6286823;22;20106;-82
2022/06/24 13:20:22;;;;;;;11.10;8.60;;;21.70;99.90;;;;;;6313824;22;20420;-85
2022/06/24 13:22:48;;;;;;;12.77;9.75;;;21.70;99.90;;;;;;6289176;22;20032;-83
2022/06/24 13:25:14;;;;;;;10.75;8.65;;;21.80;99.90;;;;;;6342507;22;20015;-83
2022/06/24 13:27:41;;;;;;;12.18;8.07;;;21.90;99.90;;;;;;6288486;22;20337;-81
2022/06/24 13:30:09;;;;;;;10.00;8.30;;;22.00;99.90;;;;;;6312924;22;20011;-85
2022/06/24 13:32:35;;;;;;;10.48;8.10;;;22.00;99.90;;;;;;6281907;22;20023;-82
2022/06/24 13:35:00;;;;;;;9.73;8.57;;;22.00;99.90;;;;;;6281579;22;20310;-85
2022/06/24 13:37:27;;;;;;;12.32;9.45;;;22.10;99.90;;;;;;6309499;22;20086;-86
2022/06/24 13:39:52;;;;;;;14.90;10.77;;;22.10;99.90;;;;;;6309600;22;20440;-85
2022/06/24 13:42:18;;;;;;;14.70;11.02;;;22.20;99.90;;;;;;6282558;22;20065;-82
2022/06/24 13:44:44;;;;;;;16.95;11.13;;;22.10;99.90;;;;;;6310644;22;20325;-84
2022/06/24 13:47:09;;;;;;;13.80;10.15;;;22.10;99.90;;;;;;6284809;22;20011;-85
2022/06/24 13:49:35;;;;;;;13.43;10.48;;;22.30;99.90;;;;;;6260566;22;20064;-84
2022/06/24 13:52:01;;;;;;;16.52;12.43;;;22.50;99.90;;;;;;6284289;22;20030;-84
2022/06/24 13:54:27;;;;;;;15.88;11.63;;;22.60;99.90;;;;;;6284641;22;20025;-85
2022/06/24 13:56:53;;;;;;;15.32;12.45;;;22.70;99.90;;;;;;6311383;22;20011;-83
2022/06/24 13:59:18;;;;;;;15.48;12.23;;;23.00;99.90;;;;;;6285665;22;20015;-85
2022/06/24 14:01:44;;;;;;;13.00;10.38;;;23.20;99.90;;;;;;6311324;22;20011;-85
2022/06/24 14:04:10;;;;;;;12.38;10.38;;;23.30;99.90;;;;;;6284139;22;20018;-83
2022/06/24 14:06:36;;;;;;;13.63;10.93;;;23.20;99.90;;;;;;6309558;22;20083;-82
2022/06/24 14:09:03;;;;;;;12.32;10.57;;;23.20;99.90;;;;;;6257481;22;20062;-83
2022/06/24 14:11:30;;;;;;;13.00;10.95;;;23.20;99.90;;;;;;6309340;22;20086;-84
2022/06/24 14:13:56;;;;;;;12.30;11.00;;;23.20;99.90;;;;;;6284763;22;20046;-82
2022/06/24 14:16:21;;;;;;;15.20;11.75;;;23.30;99.90;;;;;;6257839;22;20022;-82
2022/06/24 14:18:47;;;;;;;10.18;9.15;;;23.50;99.90;;;;;;6282339;22;20341;-81
2022/06/24 14:21:13;;;;;;;19.73;13.65;;;23.70;99.90;;;;;;6309213;22;20386;-84
2022/06/24 14:26:24;;;;;;;14.95;12.93;;;23.80;99.90;;;;;;6285577;22;20015;-86
2022/06/24 14:28:51;;;;;;;15.43;13.52;;;23.60;99.90;;;;;;6260324;22;20011;-87
2022/06/24 14:31:18;;;;;;;20.13;16.45;;;23.40;99.90;;;;;;6285065;22;20007;-87
2022/06/24 14:33:47;;;;;;;17.52;15.35;;;23.30;99.90;;;;;;6283971;22;20452;-87
2022/06/24 14:36:13;;;;;;;15.05;13.45;;;23.20;99.90;;;;;;6259944;22;20018;-85
2022/06/24 14:41:24;;;;;;;18.77;15.87;;;23.00;99.90;;;;;;6286979;22;20054;-83
2022/06/24 14:43:50;;;;;;;18.20;16.30;;;22.80;99.90;;;;;;6315034;22;20011;-88
2022/06/24 14:46:19;;;;;;;19.00;17.00;;;22.80;99.90;;;;;;6252223;23;20335;-86
2022/06/24 14:48:50;;;;;;;21.15;15.68;;;22.80;99.90;;;;;;6200916;23;20019;-85
2022/06/24 14:51:27;;;;;;;16.95;14.32;;;22.90;99.90;;;;;;6249228;23;20020;-85
2022/06/24 14:53:55;;;;;;;19.58;16.35;;;22.90;99.90;;;;;;6248663;23;20357;-84
2022/06/24 14:56:21;;;;;;;19.58;17.33;;;22.90;99.90;;;;;;6249847;23;20012;-86
2022/06/24 14:58:49;;;;;;;23.15;19.38;;;23.10;99.90;;;;;;6249347;23;20012;-88
2022/06/24 15:01:15;;;;;;;21.08;18.15;;;23.10;99.90;;;;;;6250017;23;20020;-85
2022/06/24 15:03:40;;;;;;;20.63;18.42;;;23.10;99.90;;;;;;6247164;23;20015;-86
2022/06/24 15:06:06;;;;;;;20.60;18.40;;;23.10;99.90;;;;;;6246879;23;20008;-83
2022/06/24 15:08:34;;;;;;;21.63;18.02;;;23.00;99.90;;;;;;6221334;23;20015;-86
2022/06/24 15:11:00;;;;;;;22.38;18.08;;;23.00;99.90;;;;;;6247841;23;20043;-86
2022/06/24 15:13:26;;;;;;;20.52;17.15;;;23.00;99.90;;;;;;6221991;23;20016;-84
2022/06/24 15:15:52;;;;;;;23.77;19.92;;;23.00;99.90;;;;;;6247056;23;20016;-85
2022/06/24 15:18:17;;;;;;;22.70;19.75;;;22.80;99.90;;;;;;6279457;22;20124;-84
2022/06/24 15:20:43;;;;;;;26.35;20.63;;;22.90;99.90;;;;;;6282099;22;20018;-83
2022/06/24 15:23:09;;;;;;;25.83;22.92;;;22.80;99.90;;;;;;6284459;22;20090;-84
2022/06/24 15:25:35;;;;;;;23.05;19.65;;;22.90;99.90;;;;;;6258161;22;20015;-84
2022/06/24 15:28:00;;;;;;;24.30;20.27;;;22.90;99.90;;;;;;6282887;22;20053;-83
2022/06/24 15:30:26;;;;;;;23.83;21.10;;;22.90;99.90;;;;;;6309970;22;20086;-83
2022/06/24 15:32:52;;;;;;;24.05;20.25;;;22.90;99.90;;;;;;6277360;22;20079;-79
2022/06/24 15:35:18;;;;;;;25.95;20.95;;;23.00;99.90;;;;;;6282000;22;20043;-83
2022/06/24 15:37:44;;;;;;;26.40;20.77;;;23.00;99.90;;;;;;6310707;22;20015;-84
2022/06/24 15:40:10;;;;;;;26.20;21.75;;;23.10;99.90;;;;;;6307509;22;20464;-82
2022/06/24 15:42:39;;;;;;;26.00;21.55;;;23.20;99.90;;;;;;6281754;22;20015;-85
2022/06/24 15:45:05;;;;;;;24.10;20.60;;;23.20;99.90;;;;;;6281770;22;20007;-83
2022/06/24 15:47:31;;;;;;;20.20;18.13;;;23.00;99.90;;;;;;6309013;22;20011;-83
2022/06/24 15:49:56;;;;;;;19.38;16.35;;;22.90;99.90;;;;;;6308448;22;20015;-83
2022/06/24 15:52:22;;;;;;;21.58;17.20;;;22.80;99.90;;;;;;6307227;22;20065;-82
2022/06/24 15:54:48;;;;;;;29.30;20.60;;;22.90;99.90;;;;;;6281700;22;20015;-82
2022/06/24 15:57:17;;;;;;;27.83;23.50;;;22.90;99.90;;;;;;6281211;22;20070;-82
2022/06/24 15:59:43;;;;;;;35.67;26.88;;;22.90;99.90;;;;;;6307233;22;20361;-82
2022/06/24 16:02:08;;;;;;;28.92;24.10;;;22.80;99.90;;;;;;6307569;22;20034;-82
2022/06/24 16:04:34;;;;;;;22.80;19.58;;;22.80;99.90;;;;;;6283083;22;20011;-82
2022/06/24 16:07:00;;;;;;;24.70;19.60;;;22.80;99.90;;;;;;6308906;22;20042;-84
2022/06/24 16:09:26;;;;;;;25.88;20.85;;;22.80;99.90;;;;;;6282688;22;20490;-80
2022/06/24 16:14:36;;;;;;;22.20;16.70;;;22.70;99.90;;;;;;6308656;22;20019;-82
2022/06/24 16:17:05;;;;;;;21.77;15.77;;;22.70;99.90;;;;;;6308562;22;20022;-81
2022/06/24 16:19:31;;;;;;;19.35;15.38;;;22.60;99.90;;;;;;6309086;22;20003;-82
2022/06/24 16:21:57;;;;;;;18.25;13.05;;;22.50;99.90;;;;;;6281926;22;20429;-80
2022/06/24 16:24:23;;;;;;;14.70;8.95;;;22.60;99.90;;;;;;6282703;22;20338;-82
2022/06/24 16:29:33;;;;;;;14.88;8.85;;;22.80;99.90;;;;;;6307994;22;20023;-81
2022/06/24 16:32:00;;;;;;;14.32;9.27;;;23.10;99.90;;;;;;6282474;22;20015;-82
2022/06/24 16:34:26;;;;;;;13.75;8.75;;;23.40;99.90;;;;;;6283065;22;20510;-81
2022/06/24 16:36:52;;;;;;;12.88;8.65;;;23.60;99.90;;;;;;6281985;22;20019;-80
2022/06/24 16:39:17;;;;;;;11.38;8.65;;;23.70;99.90;;;;;;6283059;22;20019;-81
2022/06/24 16:41:43;;;;;;;12.88;9.20;;;23.70;99.90;;;;;;6282501;22;20152;-82
2022/06/24 16:44:09;;;;;;;14.75;9.38;;;23.60;99.90;;;;;;6309373;22;20019;-82
2022/06/24 16:46:35;;;;;;;12.77;8.32;;;23.40;99.90;;;;;;6282911;22;20069;-84
2022/06/24 16:49:02;;;;;;;12.30;9.30;;;23.40;99.90;;;;;;6283250;22;20011;-81
2022/06/24 16:51:28;;;;;;;13.50;10.27;;;23.30;99.90;;;;;;6283289;22;20015;-82
2022/06/24 16:53:54;;;;;;;12.15;9.23;;;23.20;99.90;;;;;;6283412;22;20011;-82
2022/06/24 16:56:20;;;;;;;13.60;9.88;;;23.10;99.90;;;;;;6283296;22;20064;-82
2022/06/24 16:58:46;;;;;;;12.90;9.98;;;23.00;99.90;;;;;;6281661;22;20050;-80
2022/06/24 17:09:02;;;;;;;12.52;9.98;;;22.60;99.90;;;;;;6215604;23;20075;-82
2022/06/24 17:12:25;;;;;;;14.73;11.27;;;22.40;99.90;;;;;;6182613;23;20343;-81
2022/06/24 17:15:12;;;;;;;17.65;11.82;;;22.20;99.90;;;;;;6205267;23;20008;-82
2022/06/24 17:18:17;;;;;;;;;;;;;;;;;;;;;
2022/06/24 17:21:30;;;;;;;;;;;;;;;;;;;;;
2022/06/24 17:53:49;;;;;;;;;;;;;;;;;;;;;
2022/06/24 18:11:43;;;;;;;;;;;;;;;;;;;;;
2022/06/24 18:22:01;;;;;;;15.40;12.00;;;21.90;99.90;;;;;;6310532;22;20022;-81
2022/06/24 18:24:35;;;;;;;17.50;11.65;;;21.90;99.90;;;;;;6310437;22;20034;-83
2022/06/24 18:45:13;;;;;;;14.02;11.27;;;21.50;99.90;;;;;;6276662;22;20006;-82
2022/06/24 18:52:30;;;;;;;;;;;;;;;;;;;;;
2022/06/24 18:55:20;;;;;;;16.25;11.70;;;21.40;99.90;;;;;;6237147;22;20015;-81
2022/06/24 18:58:10;;;;;;;19.80;13.35;;;21.40;99.90;;;;;;6281760;22;20019;-83
2022/06/24 19:00:59;;;;;;;;;;;;;;;;;;;;;
2022/06/24 19:03:37;;;;;;;16.33;11.93;;;21.40;99.90;;;;;;6307834;22;20072;-81
2022/06/24 19:06:08;;;;;;;16.55;11.40;;;21.30;99.90;;;;;;6282348;22;20114;-81
2022/06/24 19:08:34;;;;;;;15.40;11.60;;;21.30;99.90;;;;;;6283041;22;20086;-81
2022/06/24 19:11:21;;;;;;;14.00;11.23;;;21.30;99.90;;;;;;6310383;22;20042;-83
2022/06/24 19:14:14;;;;;;;15.95;11.35;;;21.30;99.90;;;;;;6282916;22;20356;-82
2022/06/24 19:16:41;;;;;;;13.63;10.75;;;21.20;99.90;;;;;;6256220;22;20090;-80